Time;durP1;ratioP1;P1;durP2;ratioP2;P2;SDS_P1;SDS_P2;PMS_P1;PMS_P2;Temp;Humidity;BMP_temperature;BMP_pressure;BME280_temperature;BME280_humidity;BME280_pressure;Samples;Min_cycle;Max_cycle;Signal;HPM_P1;HPM_P2
2022/02/10 00:03:42;;;;;;;11.75;5.70;;;10.10;99.90;;;;;;4177814;28;20036;-71
2022/02/10 00:17:14;;;;;;;13.15;6.22;;;10.20;99.90;;;;;;4162815;27;20497;-71
2022/02/10 00:21:34;;;;;;;12.55;5.95;;;10.20;99.90;;;;;;4175129;28;20609;-71
2022/02/10 00:35:15;;;;;;;14.10;6.20;;;10.20;99.90;;;;;;4175701;28;20038;-71
2022/02/10 00:37:20;;;;;;;17.10;6.00;;;10.20;99.90;;;;;;4174649;28;20413;-71
2022/02/10 00:41:21;;;;;;;10.68;5.85;;;10.20;99.90;;;;;;4174964;28;20029;-71
2022/02/10 00:43:22;;;;;;;15.90;6.88;;;10.20;99.90;;;;;;4175384;28;20110;-71
2022/02/10 00:45:25;;;;;;;14.43;6.72;;;10.20;99.90;;;;;;4191236;28;20081;-71
2022/02/10 00:47:28;;;;;;;13.63;6.65;;;10.20;99.90;;;;;;4187381;28;20050;-71
2022/02/10 00:49:29;;;;;;;;;;;10.10;99.90;;;;;;4194137;28;20509;-71
2022/02/10 00:51:29;;;;;;;13.52;6.40;;;10.20;99.90;;;;;;4191163;28;19943;-71
2022/02/10 00:53:32;;;;;;;13.80;6.13;;;10.20;99.90;;;;;;4191732;28;20409;-71
2022/02/10 00:55:35;;;;;;;;;;;10.20;99.90;;;;;;4191892;28;20397;-71
2022/02/10 00:57:35;;;;;;;10.25;5.82;;;10.10;99.90;;;;;;4192179;28;19913;-71
2022/02/10 01:11:24;;;;;;;12.23;5.65;;;10.10;99.90;;;;;;4189280;28;20025;-71
2022/02/10 01:29:33;;;;;;;13.75;7.30;;;10.10;99.90;;;;;;4175016;28;20041;-71
2022/02/10 01:31:35;;;;;;;13.20;6.28;;;10.00;99.90;;;;;;4176715;28;20036;-71
2022/02/10 01:33:36;;;;;;;11.88;6.70;;;10.00;99.90;;;;;;4181244;28;20057;-71
2022/02/10 01:35:37;;;;;;;16.58;7.50;;;10.00;99.90;;;;;;4174475;28;20402;-71
2022/02/10 01:37:38;;;;;;;12.43;6.00;;;10.00;99.90;;;;;;4158276;28;20065;-71
2022/02/10 01:39:45;;;;;;;12.30;6.85;;;10.00;99.90;;;;;;4176260;28;20134;-71
2022/02/10 02:03:28;;;;;;;13.33;7.37;;;9.80;99.90;;;;;;4177124;28;20147;-71
2022/02/10 02:05:51;;;;;;;14.75;7.25;;;9.80;99.90;;;;;;4191147;28;20033;-71
2022/02/10 02:07:52;;;;;;;;;;;9.80;99.90;;;;;;4180715;28;20138;-71
2022/02/10 02:09:52;;;;;;;11.55;6.60;;;9.80;99.90;;;;;;4176855;28;19908;-71
2022/02/10 02:11:55;;;;;;;15.23;7.20;;;9.80;99.90;;;;;;4192093;28;20450;-71
2022/02/10 02:13:55;;;;;;;;;;;9.70;99.90;;;;;;4193523;28;20079;-71
2022/02/10 02:15:56;;;;;;;13.80;7.25;;;9.80;99.90;;;;;;4191088;28;19908;-71
2022/02/10 02:17:57;;;;;;;12.93;6.63;;;9.70;99.90;;;;;;4192078;28;20536;-71
2022/02/10 02:19:57;;;;;;;14.15;6.78;;;9.70;99.90;;;;;;4175691;28;20045;-71
2022/02/10 02:22:02;;;;;;;12.48;6.35;;;9.70;99.90;;;;;;4173421;28;20398;-71
2022/02/10 02:24:03;;;;;;;11.20;6.68;;;9.60;99.90;;;;;;4180216;28;20037;-71
2022/02/10 02:26:10;;;;;;;12.55;6.50;;;9.60;99.90;;;;;;4177020;28;20112;-71
2022/02/10 02:28:11;;;;;;;15.50;7.35;;;9.60;99.90;;;;;;4180266;28;20040;-71
2022/02/10 02:30:35;;;;;;;14.68;7.15;;;9.60;99.90;;;;;;4181011;28;20120;-71
2022/02/10 02:32:39;;;;;;;16.05;7.65;;;9.60;99.90;;;;;;4174670;28;20037;-71
2022/02/10 03:06:32;;;;;;;14.25;6.68;;;9.30;99.90;;;;;;4195535;28;20097;-71
2022/02/10 03:08:41;;;;;;;17.20;6.70;;;9.30;99.90;;;;;;4193346;28;20409;-71
2022/02/10 03:12:45;;;;;;;15.43;7.10;;;9.30;99.90;;;;;;4193202;28;20047;-71
2022/02/10 03:14:50;;;;;;;13.35;6.60;;;9.20;99.90;;;;;;4196282;28;20119;-71
2022/02/10 04:22:24;;;;;;;13.43;6.53;;;8.80;99.90;;;;;;4177293;28;20025;-70
2022/02/10 04:27:13;;;;;;;15.68;7.03;;;8.80;99.90;;;;;;4143285;28;20116;-70
2022/02/10 04:29:37;;;;;;;14.07;7.28;;;8.70;99.90;;;;;;4176670;28;20164;-70
2022/02/10 04:43:27;;;;;;;12.77;7.82;;;8.40;99.90;;;;;;4192204;28;20024;-70
2022/02/10 04:59:29;;;;;;;13.75;7.30;;;8.30;99.90;;;;;;4189865;28;20044;-70
2022/02/10 05:01:58;;;;;;;14.55;7.95;;;8.30;99.90;;;;;;4191703;28;20042;-70
2022/02/10 05:14:06;;;;;;;15.02;8.15;;;8.20;99.90;;;;;;4179074;28;20025;-69
2022/02/10 05:20:16;;;;;;;15.43;7.78;;;8.10;99.90;;;;;;4170519;28;20533;-69
2022/02/10 05:24:42;;;;;;;17.23;8.30;;;8.10;99.90;;;;;;4173988;28;20544;-69
2022/02/10 05:35:33;;;;;;;17.48;8.27;;;8.00;99.90;;;;;;4190944;28;21240;-71
2022/02/10 05:37:36;;;;;;;15.60;7.53;;;8.00;99.90;;;;;;4191546;28;20064;-71
2022/02/10 05:39:42;;;;;;;12.43;7.50;;;8.00;99.90;;;;;;4191865;28;20044;-71
2022/02/10 05:41:59;;;;;;;13.32;7.40;;;8.00;99.90;;;;;;4181618;28;20037;-71
2022/02/10 05:55:27;;;;;;;14.02;6.63;;;8.00;99.90;;;;;;4190407;28;20064;-71
2022/02/10 05:58:03;;;;;;;12.68;7.43;;;8.00;99.90;;;;;;4189044;28;20036;-71
2022/02/10 06:00:37;;;;;;;18.92;7.63;;;8.00;99.90;;;;;;4172489;28;20382;-71
2022/02/10 06:02:59;;;;;;;14.65;8.10;;;8.00;99.90;;;;;;4181301;28;20044;-71
2022/02/10 06:49:41;;;;;;;17.60;8.60;;;8.20;99.90;;;;;;4176778;28;20044;-69
2022/02/10 07:03:14;;;;;;;13.30;7.82;;;8.20;99.90;;;;;;4178403;28;20040;-71
2022/02/10 07:55:32;;;;;;;16.73;9.05;;;8.20;99.90;;;;;;4175123;28;20040;-70
2022/02/10 08:05:03;;;;;;;15.13;8.32;;;8.20;99.90;;;;;;4191971;28;20052;-70
2022/02/10 09:15:02;;;;;;;18.52;10.65;;;8.60;99.90;;;;;;4178559;28;20040;-71
2022/02/10 09:18:08;;;;;;;18.45;10.20;;;8.50;99.90;;;;;;4187073;28;20650;-71
2022/02/10 09:50:21;;;;;;;16.08;9.88;;;8.70;99.90;;;;;;4182380;28;20124;-71
2022/02/10 09:54:31;;;;;;;17.60;10.38;;;8.70;99.90;;;;;;4198345;28;20047;-70
2022/02/10 09:56:53;;;;;;;;;;;8.60;99.90;;;;;;4191988;28;20044;-70
2022/02/10 10:00:58;;;;;;;13.70;9.27;;;8.60;99.90;;;;;;4173050;28;20047;-71
2022/02/10 10:03:13;;;;;;;18.27;11.10;;;8.60;99.90;;;;;;4192681;28;20078;-70
2022/02/10 10:07:48;;;;;;;18.92;11.43;;;8.60;99.90;;;;;;4175145;28;20033;-70
2022/02/10 10:10:09;;;;;;;20.90;11.88;;;8.60;99.90;;;;;;4191863;28;20021;-70
2022/02/10 10:14:57;;;;;;;20.70;11.40;;;8.50;99.90;;;;;;4189152;28;20465;-71
2022/02/10 10:19:34;;;;;;;16.23;10.38;;;8.50;99.90;;;;;;4191321;28;20500;-71
2022/02/10 10:21:59;;;;;;;19.23;12.00;;;8.50;99.90;;;;;;4173707;28;20037;-71
2022/02/10 10:24:17;;;;;;;19.15;11.20;;;8.40;99.90;;;;;;4173689;28;20032;-71
2022/02/10 10:44:31;;;;;;;19.10;11.32;;;8.50;99.90;;;;;;4175280;28;20033;-70
2022/02/10 10:58:13;;;;;;;18.88;10.80;;;8.50;99.90;;;;;;4185276;28;20040;-71
2022/02/10 11:36:22;;;;;;;17.85;12.38;;;8.40;99.90;;;;;;4192086;28;20025;-71
2022/02/10 11:41:05;;;;;;;17.42;12.02;;;8.60;99.90;;;;;;4164964;28;20654;-71
2022/02/10 11:46:11;;;;;;;19.55;12.27;;;8.70;99.90;;;;;;4190915;28;20110;-71
2022/02/10 11:59:53;;;;;;;19.73;12.65;;;8.70;99.90;;;;;;4188215;28;20047;-71
2022/02/10 12:42:53;;;;;;;17.88;11.88;;;9.40;99.90;;;;;;4172564;28;20029;-71
2022/02/10 13:30:05;;;;;;;12.02;8.70;;;9.50;99.90;;;;;;4174510;28;20427;-71
2022/02/10 14:13:37;;;;;;;15.43;9.45;;;9.80;99.90;;;;;;4174541;28;20113;-71
2022/02/10 14:17:46;;;;;;;15.23;8.55;;;9.80;99.90;;;;;;4173856;28;20029;-71
2022/02/10 14:19:58;;;;;;;13.25;7.68;;;9.80;99.90;;;;;;4173676;28;20158;-71
2022/02/10 14:22:21;;;;;;;10.73;6.82;;;9.80;99.90;;;;;;4192809;28;20039;-70
2022/02/10 14:26:47;;;;;;;9.75;7.03;;;9.80;99.90;;;;;;4193946;28;20382;-71
2022/02/10 14:28:48;;;;;;;10.23;7.03;;;9.80;99.90;;;;;;4177064;28;20040;-71
2022/02/10 14:30:52;;;;;;;11.95;7.40;;;9.70;99.90;;;;;;4185851;28;20063;-71
2022/02/10 14:32:56;;;;;;;16.52;9.95;;;9.70;99.90;;;;;;4194184;28;20044;-71
2022/02/10 14:35:07;;;;;;;13.77;8.40;;;9.70;99.90;;;;;;4194224;28;20105;-71
2022/02/10 14:39:29;;;;;;;14.25;7.93;;;9.70;99.90;;;;;;4177027;28;20107;-71
2022/02/10 15:50:33;;;;;;;5.78;3.45;;;9.40;99.90;;;;;;4178729;28;20048;-71
2022/02/10 15:54:37;;;;;;;6.47;3.40;;;9.40;99.90;;;;;;4183835;28;20436;-70
2022/02/10 16:10:57;;;;;;;4.80;2.60;;;9.40;99.90;;;;;;4191256;28;20032;-70
2022/02/10 16:16:02;;;;;;;6.68;2.80;;;9.30;99.90;;;;;;4193310;28;20036;-70
2022/02/10 16:17:39;;;;;;;4.30;2.40;;;9.30;99.90;;;;;;4175932;28;20491;-71
2022/02/10 16:19:41;;;;;;;4.60;2.90;;;9.30;99.90;;;;;;4177284;28;20549;-71
2022/02/10 16:21:46;;;;;;;5.53;3.30;;;9.30;99.90;;;;;;4192154;28;20809;-71
2022/02/10 16:23:49;;;;;;;7.85;3.65;;;9.30;99.90;;;;;;4195199;28;20033;-71
2022/02/10 16:26:01;;;;;;;10.57;3.47;;;9.20;99.90;;;;;;4176342;28;20041;-71
2022/02/10 16:28:22;;;;;;;8.10;3.40;;;9.20;99.90;;;;;;4182439;28;20029;-71
2022/02/10 16:30:24;;;;;;;6.43;2.90;;;9.20;99.90;;;;;;4176070;28;20056;-71
2022/02/10 16:32:24;;;;;;;6.22;3.10;;;9.20;99.90;;;;;;4179142;28;20459;-71
2022/02/10 16:34:25;;;;;;;5.88;3.50;;;9.10;99.90;;;;;;4194934;28;20044;-71
2022/02/10 16:36:30;;;;;;;7.97;3.15;;;9.10;99.90;;;;;;4194804;28;20047;-71
2022/02/10 16:38:32;;;;;;;7.20;3.30;;;9.00;99.90;;;;;;4190827;28;20036;-71
2022/02/10 16:40:33;;;;;;;6.32;3.17;;;9.00;99.90;;;;;;4192040;28;20469;-71
2022/02/10 16:42:34;;;;;;;7.95;2.97;;;9.00;99.90;;;;;;4176639;28;20033;-71
2022/02/10 16:44:35;;;;;;;8.10;2.78;;;9.00;99.90;;;;;;4196348;28;20552;-71
2022/02/10 16:46:35;;;;;;;7.13;3.38;;;8.90;99.90;;;;;;4177549;28;20085;-70
2022/02/10 16:48:38;;;;;;;6.35;2.72;;;8.90;99.90;;;;;;4189192;28;20123;-70
2022/02/10 16:50:43;;;;;;;5.05;3.03;;;9.00;99.90;;;;;;4177539;28;20179;-70
2022/02/10 16:52:48;;;;;;;5.25;2.55;;;9.00;99.90;;;;;;4174529;28;20021;-70
2022/02/10 16:54:52;;;;;;;5.18;3.03;;;9.00;99.90;;;;;;4191231;28;20032;-70
2022/02/10 16:59:08;;;;;;;4.07;2.65;;;9.00;99.90;;;;;;4202846;28;20085;-72
2022/02/10 17:01:27;;;;;;;6.13;3.00;;;8.90;99.90;;;;;;4190513;28;20039;-70
2022/02/10 17:03:42;;;;;;;4.82;2.90;;;9.00;99.90;;;;;;4190260;28;20094;-70
2022/02/10 17:06:02;;;;;;;5.93;3.40;;;9.00;99.90;;;;;;4189868;27;20470;-70
2022/02/10 17:19:30;;;;;;;10.50;3.83;;;8.90;99.90;;;;;;4175979;28;20064;-71
2022/02/10 17:25:09;;;;;;;10.07;4.47;;;8.90;99.90;;;;;;4175047;28;20037;-70
2022/02/10 17:28:19;;;;;;;6.75;3.65;;;8.80;99.90;;;;;;4177190;28;20040;-71
2022/02/10 17:30:51;;;;;;;5.63;3.05;;;8.80;99.90;;;;;;4175922;28;20400;-71
2022/02/10 17:52:34;;;;;;;6.68;3.72;;;9.00;99.90;;;;;;4174319;28;20060;-71
2022/02/10 17:54:35;;;;;;;4.70;2.97;;;9.00;99.90;;;;;;4175025;28;20049;-71
2022/02/10 17:56:36;;;;;;;10.27;3.88;;;9.00;99.90;;;;;;4174063;28;20068;-71
2022/02/10 17:58:37;;;;;;;11.10;4.40;;;9.00;99.90;;;;;;4174351;28;20094;-70
2022/02/10 18:00:38;;;;;;;8.50;3.95;;;8.90;99.90;;;;;;4191673;28;20032;-71
2022/02/10 18:02:39;;;;;;;9.60;3.90;;;8.80;99.90;;;;;;4192947;28;20052;-71
2022/02/10 18:04:39;;;;;;;7.25;3.97;;;8.70;99.90;;;;;;4193982;28;20099;-71
2022/02/10 18:06:43;;;;;;;5.93;2.95;;;8.60;99.90;;;;;;4189373;28;20385;-71
2022/02/10 18:09:22;;;;;;;6.97;3.08;;;8.60;99.90;;;;;;4182251;28;20040;-71
2022/02/10 18:15:32;;;;;;;2.70;1.85;;;8.40;99.90;;;;;;4189417;28;20130;-72
2022/02/10 18:17:40;;;;;;;4.88;2.00;;;8.40;99.90;;;;;;4190452;28;20035;-71
2022/02/10 18:19:50;;;;;;;4.90;2.00;;;8.30;99.90;;;;;;4172864;28;20122;-71
2022/02/10 18:24:08;;;;;;;4.10;1.70;;;8.20;99.90;;;;;;4190467;28;20068;-71
2022/02/10 18:26:14;;;;;;;3.25;1.55;;;8.10;99.90;;;;;;4190498;28;20033;-71
2022/02/10 18:30:20;;;;;;;4.40;1.60;;;8.10;99.90;;;;;;4192636;28;20162;-70
2022/02/10 19:07:21;;;;;;;8.95;2.80;;;7.70;99.90;;;;;;4172167;28;20048;-71
2022/02/10 19:09:29;;;;;;;7.68;2.80;;;7.70;99.90;;;;;;4177479;28;20033;-71
2022/02/10 19:11:30;;;;;;;8.82;2.53;;;7.70;99.90;;;;;;4176676;28;20029;-71
2022/02/10 19:13:31;;;;;;;3.08;1.73;;;7.60;99.90;;;;;;4172868;28;20517;-71
2022/02/10 19:15:33;;;;;;;5.88;1.60;;;7.40;99.90;;;;;;4175215;28;20459;-71
2022/02/10 19:17:34;;;;;;;8.07;1.80;;;7.30;99.90;;;;;;4173518;28;20512;-71
2022/02/10 19:19:35;;;;;;;3.20;1.23;;;7.20;99.90;;;;;;4173123;28;20132;-71
2022/02/10 19:21:36;;;;;;;3.47;1.55;;;7.20;99.90;;;;;;4180433;28;20037;-71
2022/02/10 19:23:36;;;;;;;4.75;1.42;;;7.10;99.90;;;;;;4174472;28;20121;-71
2022/02/10 19:25:39;;;;;;;5.80;1.63;;;7.10;99.90;;;;;;4174701;28;20527;-71
2022/02/10 19:27:41;;;;;;;3.85;1.38;;;7.10;99.90;;;;;;4204517;28;20085;-71
2022/02/10 19:29:45;;;;;;;5.10;1.40;;;7.10;99.90;;;;;;4185521;28;20035;-71
2022/02/10 19:31:46;;;;;;;6.00;1.80;;;7.00;99.90;;;;;;4191837;28;20029;-71
2022/02/10 19:33:50;;;;;;;2.15;0.95;;;6.90;99.90;;;;;;4187935;28;20398;-71
2022/02/10 19:35:53;;;;;;;4.28;1.15;;;6.90;99.90;;;;;;4181338;28;20029;-71
2022/02/10 19:38:00;;;;;;;3.45;1.23;;;6.80;99.90;;;;;;4174583;28;20033;-71
2022/02/10 19:40:03;;;;;;;3.53;1.10;;;6.80;99.90;;;;;;4178060;28;20025;-71
2022/02/10 19:42:04;;;;;;;7.88;1.70;;;6.80;99.90;;;;;;4183503;28;20113;-71
2022/02/10 19:44:06;;;;;;;6.60;0.80;;;6.70;99.90;;;;;;4183742;28;20024;-71
2022/02/10 19:46:07;;;;;;;;;;;6.70;99.90;;;;;;4184342;28;20474;-71
2022/02/10 19:48:08;;;;;;;5.13;1.20;;;6.70;99.90;;;;;;4193440;28;19909;-71
2022/02/10 19:50:13;;;;;;;4.70;1.63;;;6.70;99.90;;;;;;4191228;28;20407;-71
2022/02/10 19:52:16;;;;;;;10.18;1.33;;;6.70;99.90;;;;;;4189531;28;20032;-71
2022/02/10 19:54:24;;;;;;;5.55;1.35;;;6.60;99.90;;;;;;4189020;28;20040;-72
2022/02/10 19:56:28;;;;;;;5.05;1.25;;;6.60;99.90;;;;;;4177487;27;20048;-72
2022/02/10 19:58:28;;;;;;;2.40;0.98;;;6.50;99.90;;;;;;4176190;28;20039;-72
2022/02/10 20:00:36;;;;;;;4.95;1.10;;;6.60;99.90;;;;;;4189482;28;20032;-72
2022/02/10 20:02:37;;;;;;;3.47;1.08;;;6.50;99.90;;;;;;4192660;28;20037;-72
2022/02/10 20:04:38;;;;;;;1.98;0.88;;;6.50;99.90;;;;;;4181418;28;20044;-72
2022/02/10 20:06:38;;;;;;;0.90;0.60;;;6.40;99.90;;;;;;4188903;28;20401;-72
2022/02/10 20:08:39;;;;;;;3.22;0.77;;;6.50;99.90;;;;;;4183957;28;20037;-72
2022/02/10 20:10:40;;;;;;;2.40;1.10;;;6.60;99.90;;;;;;4179953;28;20633;-71
2022/02/10 20:12:40;;;;;;;2.53;0.77;;;6.60;99.90;;;;;;4176577;28;20048;-71
2022/02/10 20:14:41;;;;;;;3.60;0.80;;;6.70;99.90;;;;;;4172977;28;20398;-71
2022/02/10 20:16:41;;;;;;;3.22;1.02;;;6.70;99.90;;;;;;4186426;28;20032;-71
2022/02/10 20:18:45;;;;;;;2.58;0.80;;;6.80;99.90;;;;;;4177586;28;20437;-72
2022/02/10 20:20:49;;;;;;;3.22;0.90;;;6.80;99.90;;;;;;4176105;28;20033;-72
2022/02/10 20:22:50;;;;;;;6.85;1.50;;;6.80;99.90;;;;;;4182805;28;20048;-71
2022/02/10 20:24:51;;;;;;;2.78;1.40;;;6.80;99.90;;;;;;4210016;28;20032;-71
2022/02/10 20:26:51;;;;;;;3.90;1.20;;;6.90;99.90;;;;;;4176956;28;20033;-71
2022/02/10 20:28:52;;;;;;;2.22;1.20;;;6.80;99.90;;;;;;4176153;28;20052;-71
2022/02/10 20:30:53;;;;;;;1.95;0.85;;;6.90;99.90;;;;;;4176960;28;20036;-71
2022/02/10 20:32:53;;;;;;;3.00;1.05;;;6.90;99.90;;;;;;4181195;28;20040;-71
2022/02/10 20:34:55;;;;;;;3.65;1.10;;;6.90;99.90;;;;;;4177817;28;20029;-71
2022/02/10 20:36:57;;;;;;;2.53;1.00;;;7.00;99.90;;;;;;4185786;28;20048;-71
2022/02/10 20:38:59;;;;;;;3.33;1.08;;;7.00;99.90;;;;;;4174878;28;20043;-71
2022/02/10 20:41:03;;;;;;;3.90;1.10;;;7.00;99.90;;;;;;4174480;28;20511;-71
2022/02/10 20:43:06;;;;;;;1.80;0.80;;;7.00;99.90;;;;;;4176696;28;20033;-71
2022/02/10 20:45:08;;;;;;;1.98;0.90;;;7.00;99.90;;;;;;4176485;28;20116;-71
2022/02/10 20:47:08;;;;;;;3.72;0.90;;;7.00;99.90;;;;;;4177179;28;20449;-71
2022/02/10 20:49:16;;;;;;;2.70;0.77;;;7.00;99.90;;;;;;4189112;28;20036;-71
2022/02/10 20:51:17;;;;;;;2.67;0.57;;;7.00;99.90;;;;;;4192436;28;20124;-71
2022/02/10 20:53:18;;;;;;;2.40;0.65;;;7.00;99.90;;;;;;4190793;28;20086;-71
2022/02/10 20:55:19;;;;;;;2.35;0.88;;;7.00;99.90;;;;;;4190726;28;20032;-71
2022/02/10 20:57:19;;;;;;;3.20;0.90;;;7.10;99.90;;;;;;4194788;28;20025;-71
2022/02/10 20:59:35;;;;;;;3.60;1.17;;;7.00;99.90;;;;;;4179345;28;20029;-71
2022/02/10 21:01:36;;;;;;;3.47;1.00;;;7.00;99.90;;;;;;4176742;28;20029;-71
2022/02/10 21:03:37;;;;;;;5.50;0.70;;;7.00;99.90;;;;;;4177910;28;20048;-71
2022/02/10 21:05:41;;;;;;;4.57;1.02;;;6.90;99.90;;;;;;4175973;28;20363;-71
2022/02/10 21:07:51;;;;;;;2.85;0.82;;;6.90;99.90;;;;;;4174642;28;20029;-71
2022/02/10 21:10:03;;;;;;;2.28;1.02;;;6.80;99.90;;;;;;4176522;28;20033;-71
2022/02/10 21:12:07;;;;;;;2.95;0.77;;;6.80;99.90;;;;;;4189528;28;20036;-71
2022/02/10 21:14:15;;;;;;;3.88;1.17;;;6.70;99.90;;;;;;4193007;28;20044;-71
2022/02/10 21:16:15;;;;;;;3.00;0.85;;;6.70;99.90;;;;;;4193343;28;20056;-71
2022/02/10 21:18:18;;;;;;;7.40;1.40;;;6.70;99.90;;;;;;4192669;28;20047;-71
2022/02/10 21:20:20;;;;;;;;;;;6.60;99.90;;;;;;4190574;28;20382;-71
2022/02/10 21:22:21;;;;;;;2.65;1.00;;;6.60;99.90;;;;;;4187523;28;19916;-71
2022/02/10 21:24:27;;;;;;;1.92;1.00;;;6.60;99.90;;;;;;4174627;28;20410;-71
2022/02/10 21:26:33;;;;;;;3.97;1.00;;;6.60;99.90;;;;;;4175598;28;20037;-71
2022/02/10 21:28:37;;;;;;;2.97;0.90;;;6.60;99.90;;;;;;4175773;28;20052;-71
2022/02/10 21:30:37;;;;;;;2.58;1.05;;;6.60;99.90;;;;;;4173716;28;20099;-71
2022/02/10 21:32:50;;;;;;;4.35;1.20;;;6.60;99.90;;;;;;4175105;28;20441;-71
2022/02/10 21:37:23;;;;;;;3.20;1.20;;;6.50;99.90;;;;;;4183867;28;20043;-71
2022/02/10 21:48:23;;;;;;;3.83;1.25;;;6.50;99.90;;;;;;4191056;28;20389;-71
2022/02/10 22:03:41;;;;;;;2.63;1.50;;;6.60;99.90;;;;;;4193230;28;20108;-71
2022/02/10 22:08:39;;;;;;;4.78;1.30;;;6.50;99.90;;;;;;4194448;28;20043;-72
2022/02/10 22:19:23;;;;;;;4.22;1.00;;;6.30;99.90;;;;;;4194535;28;20036;-71
2022/02/10 22:21:30;;;;;;;2.15;1.05;;;6.40;99.90;;;;;;4189005;28;20043;-71
2022/02/10 22:23:33;;;;;;;2.58;1.05;;;6.40;99.90;;;;;;4191760;28;20456;-71
2022/02/10 22:25:36;;;;;;;3.10;1.27;;;6.40;99.90;;;;;;4191442;28;20041;-71
2022/02/10 22:27:41;;;;;;;3.55;1.25;;;6.40;99.90;;;;;;4192082;28;20112;-71
2022/02/10 22:29:48;;;;;;;3.45;1.23;;;6.40;99.90;;;;;;4191855;28;20029;-71
2022/02/10 22:32:03;;;;;;;2.47;1.23;;;6.40;99.90;;;;;;4191529;28;20036;-71
2022/02/10 22:35:04;;;;;;;3.95;1.60;;;6.30;99.90;;;;;;4175037;28;20517;-71
2022/02/10 22:36:39;;;;;;;3.50;1.50;;;6.20;99.90;;;;;;4172180;28;20188;-71
2022/02/10 22:38:39;;;;;;;2.88;1.50;;;6.20;99.90;;;;;;4176629;28;20068;-71
2022/02/10 22:40:57;;;;;;;4.97;1.65;;;6.20;99.90;;;;;;4188686;28;20032;-71
2022/02/10 22:43:00;;;;;;;4.78;1.70;;;6.20;99.90;;;;;;4193825;28;20394;-71
2022/02/10 22:45:01;;;;;;;2.97;1.52;;;6.20;99.90;;;;;;4195396;28;20106;-71
2022/02/10 22:47:02;;;;;;;3.47;1.65;;;6.20;99.90;;;;;;4193595;28;20033;-71
2022/02/10 22:49:04;;;;;;;3.80;1.42;;;6.20;99.90;;;;;;4194034;28;20123;-71
2022/02/10 22:51:04;;;;;;;2.97;1.30;;;6.10;99.90;;;;;;4193487;28;20044;-71
2022/02/10 22:53:05;;;;;;;5.32;1.42;;;6.20;99.90;;;;;;4195314;28;20097;-71
2022/02/10 22:55:06;;;;;;;4.47;1.60;;;6.20;99.90;;;;;;4190300;28;20398;-71
2022/02/10 22:57:07;;;;;;;2.60;1.63;;;6.20;99.90;;;;;;4195817;28;20032;-71
2022/02/10 22:59:09;;;;;;;2.28;1.52;;;6.20;99.90;;;;;;4195115;28;20043;-71
2022/02/10 23:01:11;;;;;;;3.30;1.67;;;6.20;99.90;;;;;;4193636;28;20021;-71
2022/02/10 23:03:19;;;;;;;;;;;6.20;99.90;;;;;;4194245;28;20043;-71
2022/02/10 23:05:20;;;;;;;2.35;1.40;;;6.20;99.90;;;;;;4193089;28;19919;-71
2022/02/10 23:07:20;;;;;;;4.22;1.88;;;6.20;99.90;;;;;;4193620;28;20041;-71
2022/02/10 23:09:28;;;;;;;6.22;1.65;;;6.20;99.90;;;;;;4194456;28;20055;-71
2022/02/10 23:11:29;;;;;;;3.42;1.67;;;6.20;99.90;;;;;;4195288;28;20501;-71
2022/02/10 23:13:33;;;;;;;3.53;1.90;;;6.20;99.90;;;;;;4194576;28;20029;-71
2022/02/10 23:15:37;;;;;;;3.13;1.75;;;6.20;99.90;;;;;;4193324;28;20071;-71
2022/02/10 23:17:40;;;;;;;3.97;1.92;;;6.20;99.90;;;;;;4192605;28;20479;-71
2022/02/10 23:19:40;;;;;;;4.13;2.00;;;6.10;99.90;;;;;;4193753;28;20043;-70
2022/02/10 23:21:41;;;;;;;2.75;1.92;;;6.10;99.90;;;;;;4194498;28;20112;-70
2022/02/10 23:23:48;;;;;;;3.42;1.85;;;6.10;99.90;;;;;;4194708;28;20520;-70
2022/02/10 23:25:52;;;;;;;4.38;2.15;;;6.10;99.90;;;;;;4193709;28;20033;-70
2022/02/10 23:27:53;;;;;;;2.90;1.98;;;6.10;99.90;;;;;;4189336;28;20083;-71
2022/02/10 23:29:54;;;;;;;2.75;1.90;;;6.10;99.90;;;;;;4191129;28;20055;-71
2022/02/10 23:31:54;;;;;;;4.65;1.70;;;6.10;99.90;;;;;;4177778;28;20025;-70
2022/02/10 23:33:58;;;;;;;3.95;2.03;;;6.20;99.90;;;;;;4191318;28;20029;-70
2022/02/10 23:38:10;;;;;;;2.25;1.83;;;6.10;99.90;;;;;;4192176;28;20138;-70
2022/02/10 23:40:11;;;;;;;4.80;2.20;;;6.00;99.90;;;;;;4194836;28;20033;-70
2022/02/10 23:42:24;;;;;;;4.47;2.28;;;6.00;99.90;;;;;;4195128;28;20262;-70
2022/02/10 23:44:29;;;;;;;4.22;2.00;;;6.00;99.90;;;;;;4194002;28;20044;-70
2022/02/10 23:46:29;;;;;;;4.22;2.28;;;6.00;99.90;;;;;;4188373;28;20032;-70
2022/02/10 23:48:32;;;;;;;3.10;2.20;;;6.00;99.90;;;;;;4192263;28;20033;-71
2022/02/10 23:50:34;;;;;;;3.22;1.80;;;6.00;99.90;;;;;;4195604;28;20033;-70
2022/02/10 23:52:35;;;;;;;5.63;2.13;;;6.00;99.90;;;;;;4193309;28;20045;-70
2022/02/10 23:54:41;;;;;;;4.53;1.85;;;6.00;99.90;;;;;;4193341;28;20532;-70
2022/02/10 23:56:47;;;;;;;7.43;2.25;;;5.90;99.90;;;;;;4193148;28;20559;-71
2022/02/10 23:58:55;;;;;;;4.30;2.47;;;5.90;99.90;;;;;;4220162;28;20024;-70
